メインページ
METAR-TAF:

METAR-TAF

空港 :

ハルビン, 中華人民共和国

ハルビン太平国際空港

緯度: 45-45N, 経度: 126-46E, 海抜: 143m

現時点の気象観測

当レポートは16分前の01:00(UTC)に作成
南/南西の風 10kt、から西/南西の間で変化する
気温 14°C
湿度 72%
気圧 1011 hPa
視程10km以上
1,500メートル以下は雲なし、積乱雲なし

METAR: ZYHB 230100Z 21005MPS 170V240 CAVOK 14/09 Q1011 NOSIG

時間: 09:16 (01:16 UTC)

予報

当レポートは9分前の01:07(UTC)に作成
予報は23日の 00時(UTC)から 23日の 24時(UTC)まで有効
南/南西の風 10kt
視程: 6000m
23日の 06時(UTC)から 23日の 07時(UTC)まで徐々に
西/北西の風 8kt

TAF: ZYHB 230107Z 2300/2324 21005MPS 6000 NSC TX20/2306Z TN08/2320Z BECMG 2306/2307 30004MPS

4,000以上の空港の気象観測と天気予報(METAR報とTAF報)

利用可能な観測所は地図上に黄色い丸と赤い丸で示す。

丸の上にカーソルを重ねると観測所名を参照できる。

次にクリックすると気象観測と天気予報を参照できる。

マップの切り替え:黒色「×」印の緑ボタンをクリックして拡大、「-」印の緑ボタンをクリックして縮小、緑色の三角印をクリックして隣りの地図に切り替え


METAR-TAF: